createdAt,value
2024-04-02T00:00:49.822Z,70.88
2024-04-02T00:04:14.407Z,71.22
2024-04-02T00:07:17.067Z,71.23
2024-04-02T00:10:19.731Z,71.31
2024-04-02T00:13:22.351Z,71.31
2024-04-02T00:16:25.424Z,71.25
2024-04-02T00:19:28.096Z,70.85
2024-04-02T00:22:31.017Z,70.82
2024-04-02T00:25:35.237Z,71.27
2024-04-02T00:28:38.072Z,70.88
2024-04-02T00:31:40.668Z,70.62
2024-04-02T00:34:46.364Z,70.71
2024-04-02T00:37:50.339Z,70.55
2024-04-02T00:40:53.559Z,70.63
2024-04-02T00:43:56.189Z,70.60
2024-04-02T00:46:58.817Z,70.48
2024-04-02T00:50:04.190Z,70.63
2024-04-02T00:53:07.361Z,70.54
2024-04-02T00:56:10.420Z,70.75
2024-04-02T00:59:13.665Z,70.74
2024-04-02T01:02:16.383Z,70.74
2024-04-02T01:05:19.077Z,71.07
2024-04-02T01:08:22.008Z,71.47
2024-04-02T01:11:25.450Z,71.51
2024-04-02T01:14:28.286Z,71.67
2024-04-02T01:17:30.970Z,71.79
2024-04-02T01:20:33.785Z,71.95
2024-04-02T01:23:36.366Z,72.02
2024-04-02T01:26:38.997Z,72.03
2024-04-02T01:29:41.541Z,72.09
2024-04-02T01:32:44.216Z,72.33
2024-04-02T01:35:46.900Z,72.36
2024-04-02T01:38:49.693Z,72.69
2024-04-02T01:41:52.483Z,72.63
2024-04-02T01:44:55.138Z,72.71
2024-04-02T01:47:58.323Z,72.57
2024-04-02T01:51:01.071Z,72.48
2024-04-02T01:54:04.393Z,72.61
2024-04-02T01:57:07.061Z,72.50
2024-04-02T02:00:10.289Z,72.70
2024-04-02T02:03:13.285Z,72.63
2024-04-02T02:06:15.944Z,72.80
2024-04-02T02:09:18.717Z,73.09
2024-04-02T02:12:22.320Z,73.20
2024-04-02T02:15:25.006Z,73.64
2024-04-02T02:18:29.804Z,73.87
2024-04-02T02:21:32.394Z,74.11
2024-04-02T02:24:36.351Z,74.69
2024-04-02T02:27:41.974Z,75.05
2024-04-02T02:30:44.697Z,75.11
2024-04-02T02:33:48.533Z,75.05
2024-04-02T02:36:51.878Z,75.43
2024-04-02T02:39:54.863Z,75.42
2024-04-02T02:42:58.187Z,75.64
2024-04-02T02:46:00.944Z,75.93
2024-04-02T02:49:03.640Z,75.87
2024-04-02T02:52:06.416Z,76.08
2024-04-02T02:55:09.106Z,76.26
2024-04-02T02:58:11.737Z,76.39
2024-04-02T03:01:14.355Z,76.46
2024-04-02T03:04:16.928Z,76.75
2024-04-02T03:07:19.601Z,76.92
2024-04-02T03:10:22.393Z,76.97
2024-04-02T03:13:25.728Z,77.20
2024-04-02T03:16:28.430Z,77.36
2024-04-02T03:19:31.117Z,77.39
2024-04-02T03:22:33.759Z,77.62
2024-04-02T03:25:36.441Z,77.86
2024-04-02T03:28:40.119Z,78.09
2024-04-02T03:31:42.768Z,78.42
2024-04-02T03:34:45.370Z,78.31
2024-04-02T03:37:47.996Z,78.40
2024-04-02T03:40:50.706Z,78.42
2024-04-02T03:43:53.338Z,78.74
2024-04-02T03:46:57.789Z,78.71
2024-04-02T03:50:00.455Z,78.71
2024-04-02T03:53:03.903Z,78.87
2024-04-02T03:56:06.967Z,78.99
2024-04-02T03:59:09.619Z,79.10
2024-04-02T04:02:12.305Z,79.40
2024-04-02T04:05:15.126Z,79.52
2024-04-02T04:08:17.874Z,79.73
2024-04-02T04:11:20.457Z,79.99
2024-04-02T04:14:23.293Z,80.00
2024-04-02T04:17:26.029Z,80.03
2024-04-02T04:20:31.658Z,80.28
2024-04-02T04:23:34.321Z,80.54
2024-04-02T04:26:37.406Z,80.60
2024-04-02T04:29:40.045Z,80.83
2024-04-02T04:32:42.719Z,80.82
2024-04-02T04:35:45.309Z,80.94
2024-04-02T04:38:48.001Z,81.04
2024-04-02T04:41:50.593Z,81.31
2024-04-02T04:44:53.321Z,81.42
2024-04-02T04:47:58.691Z,81.61
2024-04-02T04:51:03.677Z,81.77
2024-04-02T04:54:06.555Z,81.89
2024-04-02T04:57:09.152Z,82.11
2024-04-02T05:00:13.481Z,82.24
2024-04-02T05:03:16.092Z,82.45
2024-04-02T05:06:18.823Z,82.36
2024-04-02T05:09:22.124Z,82.61
2024-04-02T05:12:24.720Z,83.08
2024-04-02T05:15:27.358Z,82.73
2024-04-02T05:18:30.072Z,82.61
2024-04-02T05:21:32.673Z,82.63
2024-04-02T05:24:35.492Z,82.65
2024-04-02T05:27:38.127Z,82.77
2024-04-02T05:30:40.801Z,82.70
2024-04-02T05:33:44.003Z,82.70
2024-04-02T05:36:46.966Z,82.76
2024-04-02T05:39:52.734Z,82.58
2024-04-02T05:42:55.361Z,82.63
2024-04-02T05:45:57.998Z,82.95
2024-04-02T05:49:01.155Z,82.97
2024-04-02T05:52:04.187Z,83.10
2024-04-02T05:55:07.044Z,83.55
2024-04-02T05:58:09.656Z,83.52
2024-04-02T06:01:12.465Z,83.34
2024-04-02T06:04:15.171Z,83.71
2024-04-02T06:07:17.825Z,83.44
2024-04-02T06:10:23.107Z,83.48
2024-04-02T06:13:26.007Z,83.67
2024-04-02T06:16:28.666Z,83.66
2024-04-02T06:19:35.096Z,83.70
2024-04-02T06:22:38.344Z,83.88
2024-04-02T06:25:59.551Z,83.80
2024-04-02T06:29:02.244Z,83.98
2024-04-02T06:32:05.305Z,84.05
2024-04-02T06:35:08.031Z,84.00
2024-04-02T06:51:22.752Z,82.98
2024-04-02T06:54:25.391Z,82.51
2024-04-02T06:57:28.089Z,82.86
2024-04-02T07:00:30.804Z,83.16
2024-04-02T07:03:33.785Z,83.20
2024-04-02T07:06:36.715Z,83.34
2024-04-02T07:09:39.332Z,83.50
2024-04-02T07:12:42.047Z,83.47
2024-04-02T07:15:44.757Z,83.79
2024-04-02T07:18:47.440Z,83.71
2024-04-02T07:21:50.100Z,84.03
2024-04-02T07:24:52.670Z,84.01
2024-04-02T07:27:55.367Z,83.87
2024-04-02T07:30:58.034Z,84.00
2024-04-02T07:34:00.652Z,84.15
2024-04-02T07:37:03.284Z,84.48
2024-04-02T07:40:06.696Z,84.14
2024-04-02T07:43:09.578Z,84.32
2024-04-02T07:46:12.203Z,83.93
2024-04-02T07:49:15.640Z,83.95
2024-04-02T07:52:18.356Z,83.52
2024-04-02T07:55:21.061Z,83.94
2024-04-02T07:58:23.688Z,83.78
2024-04-02T08:01:29.543Z,84.09
2024-04-02T08:04:32.234Z,84.12
2024-04-02T08:07:34.943Z,84.63
2024-04-02T08:10:37.599Z,84.55
2024-04-02T08:13:40.307Z,85.07
2024-04-02T08:16:42.969Z,84.94
2024-04-02T08:19:46.226Z,85.06
2024-04-02T08:22:49.128Z,84.96
2024-04-02T08:25:51.836Z,84.97
2024-04-02T08:28:54.568Z,84.94
2024-04-02T08:31:57.177Z,85.07
2024-04-02T08:34:59.866Z,84.87
2024-04-02T08:38:02.571Z,84.81
2024-04-02T08:41:05.630Z,84.81
2024-04-02T08:44:08.484Z,84.32
2024-04-02T08:47:12.498Z,84.18
2024-04-02T08:50:20.131Z,84.23
2024-04-02T08:53:23.919Z,83.83
2024-04-02T08:56:26.702Z,83.84
2024-04-02T08:59:32.671Z,83.67
2024-04-02T09:02:36.068Z,84.02
2024-04-02T09:05:38.698Z,84.05
2024-04-02T09:08:44.968Z,84.20
2024-04-02T09:11:47.528Z,83.76
2024-04-02T09:14:50.148Z,83.52
2024-04-02T09:17:52.818Z,83.75
2024-04-02T09:20:55.452Z,83.92
2024-04-02T09:23:58.904Z,83.84
2024-04-02T09:27:01.560Z,83.56
2024-04-02T09:30:04.405Z,83.51
2024-04-02T09:33:07.203Z,83.74
2024-04-02T09:36:18.169Z,83.82
2024-04-02T09:39:23.362Z,83.92
2024-04-02T09:42:26.835Z,83.95
2024-04-02T09:45:30.882Z,83.81
2024-04-02T09:48:35.611Z,83.38
2024-04-02T09:51:40.791Z,83.57
2024-04-02T09:54:47.823Z,83.64
2024-04-02T09:57:50.685Z,83.23
2024-04-02T10:00:57.280Z,83.40
2024-04-02T10:04:06.424Z,83.23
2024-04-02T10:07:28.956Z,83.05
2024-04-02T10:10:31.828Z,82.77
2024-04-02T10:13:38.540Z,82.87
2024-04-02T10:16:42.114Z,82.63
2024-04-02T10:19:47.621Z,82.63
2024-04-02T10:22:54.016Z,82.46
2024-04-02T10:25:56.804Z,82.17
2024-04-02T10:29:00.726Z,82.05
2024-04-02T10:32:03.956Z,81.99
2024-04-02T10:35:16.268Z,81.98
2024-04-02T10:38:18.833Z,81.46
2024-04-02T10:41:21.443Z,81.43
2024-04-02T10:44:24.275Z,81.19
2024-04-02T10:47:28.835Z,81.34
2024-04-02T10:50:31.651Z,81.34
2024-04-02T10:53:34.312Z,80.45
2024-04-02T10:56:37.768Z,80.05
2024-04-02T10:59:44.842Z,79.85
2024-04-02T11:02:48.065Z,79.70
2024-04-02T11:05:51.062Z,79.66
2024-04-02T11:08:55.351Z,79.32
2024-04-02T11:11:59.621Z,78.74
2024-04-02T11:15:02.652Z,78.21
2024-04-02T11:18:05.718Z,78.23
2024-04-02T11:21:15.926Z,77.99
2024-04-02T11:24:37.201Z,78.04
2024-04-02T11:27:41.891Z,77.57
2024-04-02T11:30:44.649Z,77.14
2024-04-02T11:33:47.518Z,77.17
2024-04-02T11:36:50.159Z,76.84
2024-04-02T11:39:54.814Z,76.29
2024-04-02T11:42:57.564Z,76.26
2024-04-02T11:46:00.228Z,75.84
2024-04-02T11:49:04.204Z,75.58
2024-04-02T11:52:07.014Z,75.06
2024-04-02T11:55:09.640Z,75.04
2024-04-02T11:58:30.777Z,75.09
2024-04-02T12:01:34.003Z,74.76
2024-04-02T12:04:36.590Z,75.10
2024-04-02T12:07:39.956Z,74.56
2024-04-02T12:10:43.127Z,74.56
2024-04-02T12:13:48.517Z,74.31
2024-04-02T12:16:51.149Z,73.96
2024-04-02T12:19:56.447Z,74.07
2024-04-02T12:22:59.133Z,73.96
2024-04-02T12:26:01.775Z,73.85
2024-04-02T12:29:04.918Z,73.84
2024-04-02T12:32:11.281Z,73.74
2024-04-02T12:35:13.887Z,73.54
2024-04-02T12:38:16.820Z,73.75
2024-04-02T12:41:19.562Z,73.94
2024-04-02T12:44:22.230Z,74.01
2024-04-02T12:47:25.341Z,73.40
2024-04-02T12:50:28.067Z,73.13
2024-04-02T12:53:30.828Z,73.15
2024-04-02T12:56:33.886Z,72.50
2024-04-02T12:59:36.652Z,72.41
2024-04-02T13:02:39.442Z,72.05
2024-04-02T13:05:42.611Z,71.48
2024-04-02T13:08:47.779Z,71.68
2024-04-02T13:11:50.383Z,71.22
2024-04-02T13:14:53.113Z,71.07
2024-04-02T13:17:55.784Z,71.39
2024-04-02T13:21:00.866Z,71.50
2024-04-02T13:24:05.248Z,71.23
2024-04-02T13:27:07.875Z,70.68
2024-04-02T13:30:10.939Z,70.43
2024-04-02T13:33:14.083Z,70.43
2024-04-02T13:36:17.684Z,70.08
2024-04-02T13:39:20.387Z,70.37
2024-04-02T13:42:23.044Z,70.21
2024-04-02T13:45:25.586Z,70.12
2024-04-02T13:48:28.996Z,69.95
2024-04-02T13:51:31.664Z,69.77
2024-04-02T13:54:34.637Z,69.65
2024-04-02T13:57:37.252Z,69.72
2024-04-02T14:00:39.887Z,69.89
2024-04-02T14:03:42.742Z,69.80
2024-04-02T14:06:45.400Z,69.53
2024-04-02T14:09:48.013Z,69.74
2024-04-02T14:12:50.804Z,69.42
2024-04-02T14:15:54.001Z,69.22
2024-04-02T14:19:03.035Z,69.27
2024-04-02T14:22:05.751Z,69.63
2024-04-02T14:25:09.128Z,69.00
2024-04-02T14:28:11.720Z,69.09
2024-04-02T14:31:21.301Z,68.86
2024-04-02T14:34:25.630Z,68.77
2024-04-02T14:37:28.351Z,68.70
2024-04-02T14:40:34.221Z,68.63
2024-04-02T14:43:37.239Z,69.04
2024-04-02T14:46:39.937Z,69.18
2024-04-02T14:49:42.558Z,69.12
2024-04-02T14:52:45.177Z,69.18
2024-04-02T14:56:06.702Z,69.20
2024-04-02T14:59:09.355Z,69.02
2024-04-02T15:02:16.442Z,68.89
2024-04-02T15:05:19.179Z,68.91
2024-04-02T15:08:21.852Z,68.29
2024-04-02T15:11:24.457Z,68.44
2024-04-02T15:14:27.108Z,68.16
2024-04-02T15:17:30.900Z,68.06
2024-04-02T15:20:35.712Z,68.03
2024-04-02T15:23:38.330Z,67.41
2024-04-02T15:26:40.924Z,67.49
2024-04-02T15:29:46.535Z,67.50
2024-04-02T15:32:50.569Z,67.71
2024-04-02T15:35:53.325Z,67.99
2024-04-02T15:38:55.954Z,67.85
2024-04-02T15:41:58.597Z,67.97
2024-04-02T15:45:01.449Z,67.32
2024-04-02T15:48:04.239Z,66.86
2024-04-02T15:51:08.365Z,66.52
2024-04-02T15:54:11.751Z,66.32
2024-04-02T15:57:14.462Z,66.55
2024-04-02T16:00:17.606Z,66.58
2024-04-02T16:03:20.374Z,66.37
2024-04-02T16:06:23.321Z,66.63
2024-04-02T16:09:25.911Z,66.58
2024-04-02T16:12:28.568Z,66.42
2024-04-02T16:15:31.558Z,66.24
2024-04-02T16:18:35.103Z,66.34
2024-04-02T16:21:37.829Z,66.19
2024-04-02T16:24:42.515Z,66.05
2024-04-02T16:27:48.409Z,65.81
2024-04-02T16:30:51.505Z,66.01
2024-04-02T16:33:54.199Z,66.30
2024-04-02T16:36:56.863Z,66.45
2024-04-02T16:39:59.795Z,66.33
2024-04-02T16:43:02.815Z,66.57
2024-04-02T16:46:09.903Z,66.82
2024-04-02T16:49:12.503Z,66.83
2024-04-02T16:52:15.169Z,66.80
2024-04-02T16:55:17.852Z,66.99
2024-04-02T16:58:20.450Z,67.12
2024-04-02T17:01:24.466Z,67.11
2024-04-02T17:04:27.145Z,67.15
2024-04-02T17:07:31.020Z,67.07
2024-04-02T17:10:33.690Z,67.12
2024-04-02T17:13:53.085Z,67.24
2024-04-02T17:16:55.723Z,67.38
2024-04-02T17:19:59.844Z,67.52
2024-04-02T17:23:02.524Z,67.73
2024-04-02T17:26:05.259Z,67.94
2024-04-02T17:29:07.903Z,67.94
2024-04-02T17:32:10.897Z,68.35
2024-04-02T17:35:13.574Z,68.43
2024-04-02T17:38:18.229Z,68.54
2024-04-02T17:41:22.403Z,68.53
2024-04-02T17:44:25.169Z,68.58
2024-04-02T17:47:27.782Z,68.67
2024-04-02T17:50:30.513Z,68.98
2024-04-02T17:53:34.444Z,69.19
2024-04-02T17:56:37.057Z,69.31
2024-04-02T17:59:39.809Z,69.33
2024-04-02T18:02:42.506Z,69.47
2024-04-02T18:05:45.216Z,69.74
2024-04-02T18:08:48.639Z,69.79
2024-04-02T18:11:51.897Z,69.76
2024-04-02T18:14:54.610Z,69.96
2024-04-02T18:17:58.349Z,70.13
2024-04-02T18:21:05.890Z,70.34
2024-04-02T18:24:08.564Z,70.28
2024-04-02T18:27:11.894Z,70.35
2024-04-02T18:30:14.747Z,70.35
2024-04-02T18:33:18.316Z,70.41
2024-04-02T18:36:24.834Z,70.25
2024-04-02T18:39:27.462Z,70.45
2024-04-02T18:42:30.140Z,70.49
2024-04-02T18:45:32.809Z,70.74
2024-04-02T18:48:35.731Z,70.89
2024-04-02T18:51:38.951Z,71.11
2024-04-02T18:54:41.715Z,71.20
2024-04-02T18:57:44.530Z,71.48
2024-04-02T19:00:47.167Z,71.83
2024-04-02T19:03:49.895Z,72.10
2024-04-02T19:06:56.752Z,72.44
2024-04-02T19:10:19.284Z,72.61
2024-04-02T19:13:21.965Z,72.53
2024-04-02T19:16:24.547Z,72.71
2024-04-02T19:19:27.201Z,72.86
2024-04-02T19:22:30.270Z,72.90
2024-04-02T19:25:32.870Z,72.62
2024-04-02T19:28:35.625Z,72.62
2024-04-02T19:31:38.283Z,72.51
2024-04-02T19:34:41.013Z,72.69
2024-04-02T19:37:43.905Z,72.79
2024-04-02T19:41:07.457Z,72.57
2024-04-02T19:44:10.092Z,72.74
2024-04-02T19:47:12.809Z,72.60
2024-04-02T19:50:15.403Z,72.79
2024-04-02T19:53:21.219Z,72.73
2024-04-02T19:56:24.017Z,72.85
2024-04-02T19:59:26.708Z,72.68
2024-04-02T20:02:29.331Z,73.06
2024-04-02T20:05:34.582Z,73.01
2024-04-02T20:08:37.799Z,73.01
2024-04-02T20:11:40.460Z,73.12
2024-04-02T20:14:43.072Z,73.39
2024-04-02T20:17:45.754Z,73.35
2024-04-02T20:20:58.379Z,74.03
2024-04-02T20:24:00.938Z,74.09
2024-04-02T20:27:03.764Z,73.94
2024-04-02T20:30:08.278Z,73.95
2024-04-02T20:33:10.866Z,73.93
2024-04-02T20:36:20.147Z,73.86
2024-04-02T20:39:24.587Z,73.39
2024-04-02T20:42:27.264Z,73.42
2024-04-02T20:45:29.958Z,72.95
2024-04-02T20:48:32.990Z,73.33
2024-04-02T20:51:35.677Z,72.96
2024-04-02T20:54:41.353Z,72.80
2024-04-02T20:57:44.028Z,73.15
2024-04-02T21:00:46.678Z,73.15
2024-04-02T21:03:49.341Z,72.92
2024-04-02T21:06:52.688Z,73.01
2024-04-02T21:09:55.464Z,73.35
2024-04-02T21:12:58.151Z,73.62
2024-04-02T21:16:03.386Z,73.48
2024-04-02T21:19:07.175Z,73.71
2024-04-02T21:22:09.793Z,73.90
2024-04-02T21:25:12.416Z,73.84
2024-04-02T21:28:15.492Z,74.26
2024-04-02T21:31:18.049Z,74.12
2024-04-02T21:34:20.699Z,74.07
2024-04-02T21:37:23.886Z,74.42
2024-04-02T21:40:26.635Z,75.00
2024-04-02T21:43:30.705Z,74.91
2024-04-02T21:46:33.656Z,75.45
2024-04-02T21:49:36.320Z,75.59
2024-04-02T21:52:38.966Z,75.98
2024-04-02T21:55:41.598Z,76.25
2024-04-02T21:58:44.245Z,75.93
2024-04-02T22:01:47.306Z,75.93
2024-04-02T22:04:49.924Z,75.83
2024-04-02T22:07:52.542Z,75.66
2024-04-02T22:11:01.576Z,75.48
2024-04-02T22:14:04.342Z,75.63
2024-04-02T22:17:07.016Z,75.58
2024-04-02T22:20:12.907Z,75.40
2024-04-02T22:23:17.069Z,75.18
2024-04-02T22:26:19.916Z,75.50
2024-04-02T22:29:22.697Z,75.06
2024-04-02T22:32:25.578Z,75.01
2024-04-02T22:35:28.719Z,74.66
2024-04-02T22:38:31.348Z,74.62
2024-04-02T22:41:34.060Z,74.21
2024-04-02T22:44:38.389Z,74.40
2024-04-02T22:47:41.754Z,74.24
2024-04-02T22:50:44.404Z,74.16
2024-04-02T22:53:47.053Z,73.93
2024-04-02T22:56:49.787Z,74.04
2024-04-02T22:59:53.131Z,74.02
2024-04-02T23:02:55.750Z,74.22
2024-04-02T23:05:58.560Z,74.26
2024-04-02T23:09:01.580Z,73.99
2024-04-02T23:12:04.893Z,74.11
2024-04-02T23:15:07.853Z,74.15
2024-04-02T23:18:10.540Z,73.86
2024-04-02T23:21:13.219Z,74.12
2024-04-02T23:24:16.117Z,73.79
2024-04-02T23:27:18.820Z,73.82
2024-04-02T23:30:21.426Z,73.62
2024-04-02T23:33:24.145Z,73.70
2024-04-02T23:36:26.773Z,73.66
2024-04-02T23:39:29.344Z,73.14
2024-04-02T23:42:33.214Z,73.53
2024-04-02T23:45:35.830Z,73.29
2024-04-02T23:48:39.519Z,73.79
2024-04-02T23:51:42.075Z,73.78
2024-04-02T23:54:44.672Z,73.59
2024-04-02T23:57:47.237Z,73.42
